sensor_id;sensor_type;location;lat;lon;timestamp;P1;durP1;ratioP1;P2;durP2;ratioP2
11960;SDS011;6040;49.358;11.140;2023-02-08T00:00:10;9.63;;;6.27;;
11960;SDS011;6040;49.358;11.140;2023-02-08T00:02:39;12.90;;;6.60;;
11960;SDS011;6040;49.358;11.140;2023-02-08T00:05:06;11.23;;;6.47;;
11960;SDS011;6040;49.358;11.140;2023-02-08T00:07:33;11.47;;;5.80;;
11960;SDS011;6040;49.358;11.140;2023-02-08T00:09:59;14.53;;;6.67;;
11960;SDS011;6040;49.358;11.140;2023-02-08T00:12:29;11.40;;;5.93;;
11960;SDS011;6040;49.358;11.140;2023-02-08T00:14:55;12.73;;;7.00;;
11960;SDS011;6040;49.358;11.140;2023-02-08T00:17:22;11.50;;;5.90;;
11960;SDS011;6040;49.358;11.140;2023-02-08T00:19:50;14.23;;;5.93;;
11960;SDS011;6040;49.358;11.140;2023-02-08T00:22:17;13.33;;;5.87;;
11960;SDS011;6040;49.358;11.140;2023-02-08T00:24:44;10.93;;;6.23;;
11960;SDS011;6040;49.358;11.140;2023-02-08T00:27:11;13.03;;;6.87;;
11960;SDS011;6040;49.358;11.140;2023-02-08T00:29:38;11.37;;;6.80;;
11960;SDS011;6040;49.358;11.140;2023-02-08T00:32:04;10.13;;;6.00;;
11960;SDS011;6040;49.358;11.140;2023-02-08T00:34:31;19.17;;;8.03;;
11960;SDS011;6040;49.358;11.140;2023-02-08T00:37:00;11.87;;;7.23;;
11960;SDS011;6040;49.358;11.140;2023-02-08T00:39:27;13.03;;;7.03;;
11960;SDS011;6040;49.358;11.140;2023-02-08T00:41:54;11.67;;;6.67;;
11960;SDS011;6040;49.358;11.140;2023-02-08T00:44:21;8.73;;;5.77;;
11960;SDS011;6040;49.358;11.140;2023-02-08T00:46:47;10.53;;;5.83;;
11960;SDS011;6040;49.358;11.140;2023-02-08T00:49:14;12.37;;;6.30;;
11960;SDS011;6040;49.358;11.140;2023-02-08T00:51:41;14.17;;;6.27;;
11960;SDS011;6040;49.358;11.140;2023-02-08T00:54:11;9.17;;;5.80;;
11960;SDS011;6040;49.358;11.140;2023-02-08T00:56:39;14.80;;;7.10;;
11960;SDS011;6040;49.358;11.140;2023-02-08T00:59:06;14.23;;;6.73;;
11960;SDS011;6040;49.358;11.140;2023-02-08T01:01:33;9.50;;;6.07;;
11960;SDS011;6040;49.358;11.140;2023-02-08T01:04:00;11.33;;;5.77;;
11960;SDS011;6040;49.358;11.140;2023-02-08T01:06:28;9.03;;;5.67;;
11960;SDS011;6040;49.358;11.140;2023-02-08T01:08:55;8.57;;;5.33;;
11960;SDS011;6040;49.358;11.140;2023-02-08T01:11:23;10.07;;;5.40;;
11960;SDS011;6040;49.358;11.140;2023-02-08T01:13:52;9.60;;;5.17;;
11960;SDS011;6040;49.358;11.140;2023-02-08T01:16:22;7.27;;;4.30;;
11960;SDS011;6040;49.358;11.140;2023-02-08T01:18:51;12.80;;;5.77;;
11960;SDS011;6040;49.358;11.140;2023-02-08T01:21:20;8.03;;;4.83;;
11960;SDS011;6040;49.358;11.140;2023-02-08T01:23:48;9.20;;;4.53;;
11960;SDS011;6040;49.358;11.140;2023-02-08T01:26:15;10.67;;;5.63;;
11960;SDS011;6040;49.358;11.140;2023-02-08T01:28:45;9.93;;;5.77;;
11960;SDS011;6040;49.358;11.140;2023-02-08T01:31:13;7.77;;;4.90;;
11960;SDS011;6040;49.358;11.140;2023-02-08T01:33:42;10.47;;;5.37;;
11960;SDS011;6040;49.358;11.140;2023-02-08T01:36:09;8.67;;;4.97;;
11960;SDS011;6040;49.358;11.140;2023-02-08T01:38:36;9.30;;;5.10;;
11960;SDS011;6040;49.358;11.140;2023-02-08T01:41:04;11.37;;;5.90;;
11960;SDS011;6040;49.358;11.140;2023-02-08T01:43:33;9.77;;;5.33;;
11960;SDS011;6040;49.358;11.140;2023-02-08T01:46:22;8.33;;;5.10;;
11960;SDS011;6040;49.358;11.140;2023-02-08T01:48:48;10.67;;;5.47;;
11960;SDS011;6040;49.358;11.140;2023-02-08T01:51:17;12.07;;;6.50;;
11960;SDS011;6040;49.358;11.140;2023-02-08T01:53:46;11.93;;;5.80;;
11960;SDS011;6040;49.358;11.140;2023-02-08T01:56:17;11.93;;;5.60;;
11960;SDS011;6040;49.358;11.140;2023-02-08T01:58:49;16.60;;;5.20;;
11960;SDS011;6040;49.358;11.140;2023-02-08T02:01:18;11.60;;;5.97;;
11960;SDS011;6040;49.358;11.140;2023-02-08T02:03:46;12.67;;;7.00;;
11960;SDS011;6040;49.358;11.140;2023-02-08T02:06:14;11.97;;;8.03;;
11960;SDS011;6040;49.358;11.140;2023-02-08T02:08:43;16.97;;;8.50;;
11960;SDS011;6040;49.358;11.140;2023-02-08T02:11:18;13.07;;;6.07;;
11960;SDS011;6040;49.358;11.140;2023-02-08T02:13:45;9.63;;;6.23;;
11960;SDS011;6040;49.358;11.140;2023-02-08T02:16:15;11.63;;;5.63;;
11960;SDS011;6040;49.358;11.140;2023-02-08T02:18:42;11.60;;;5.90;;
11960;SDS011;6040;49.358;11.140;2023-02-08T02:21:21;8.63;;;4.83;;
11960;SDS011;6040;49.358;11.140;2023-02-08T02:24:10;7.20;;;4.57;;
11960;SDS011;6040;49.358;11.140;2023-02-08T02:27:16;14.17;;;6.43;;
11960;SDS011;6040;49.358;11.140;2023-02-08T02:30:09;14.83;;;7.30;;
11960;SDS011;6040;49.358;11.140;2023-02-08T02:33:04;14.23;;;6.50;;
11960;SDS011;6040;49.358;11.140;2023-02-08T02:35:44;9.37;;;5.43;;
11960;SDS011;6040;49.358;11.140;2023-02-08T02:38:16;13.93;;;6.23;;
11960;SDS011;6040;49.358;11.140;2023-02-08T02:40:49;12.63;;;5.80;;
11960;SDS011;6040;49.358;11.140;2023-02-08T02:43:28;10.17;;;5.53;;
11960;SDS011;6040;49.358;11.140;2023-02-08T02:46:12;9.97;;;5.30;;
11960;SDS011;6040;49.358;11.140;2023-02-08T02:48:49;10.93;;;5.23;;
11960;SDS011;6040;49.358;11.140;2023-02-08T02:51:24;10.60;;;5.60;;
11960;SDS011;6040;49.358;11.140;2023-02-08T02:53:55;12.77;;;5.67;;
11960;SDS011;6040;49.358;11.140;2023-02-08T02:56:27;13.53;;;7.00;;
11960;SDS011;6040;49.358;11.140;2023-02-08T02:58:57;12.37;;;6.20;;
11960;SDS011;6040;49.358;11.140;2023-02-08T03:01:29;11.80;;;5.77;;
11960;SDS011;6040;49.358;11.140;2023-02-08T03:03:57;14.37;;;6.73;;
11960;SDS011;6040;49.358;11.140;2023-02-08T03:06:27;11.17;;;5.83;;
11960;SDS011;6040;49.358;11.140;2023-02-08T03:11:56;10.53;;;5.50;;
11960;SDS011;6040;49.358;11.140;2023-02-08T03:14:33;9.87;;;4.87;;
11960;SDS011;6040;49.358;11.140;2023-02-08T03:17:11;7.57;;;4.60;;
11960;SDS011;6040;49.358;11.140;2023-02-08T03:19:51;7.97;;;5.30;;
11960;SDS011;6040;49.358;11.140;2023-02-08T03:22:28;9.07;;;5.03;;
11960;SDS011;6040;49.358;11.140;2023-02-08T03:25:04;9.97;;;5.20;;
11960;SDS011;6040;49.358;11.140;2023-02-08T03:27:35;8.27;;;4.77;;
11960;SDS011;6040;49.358;11.140;2023-02-08T03:30:07;12.17;;;5.17;;
11960;SDS011;6040;49.358;11.140;2023-02-08T03:32:41;10.97;;;6.17;;
11960;SDS011;6040;49.358;11.140;2023-02-08T03:35:14;7.43;;;4.67;;
11960;SDS011;6040;49.358;11.140;2023-02-08T03:37:44;10.90;;;5.77;;
11960;SDS011;6040;49.358;11.140;2023-02-08T03:40:16;12.77;;;6.17;;
11960;SDS011;6040;49.358;11.140;2023-02-08T03:42:49;9.93;;;5.87;;
11960;SDS011;6040;49.358;11.140;2023-02-08T03:45:20;9.10;;;5.40;;
11960;SDS011;6040;49.358;11.140;2023-02-08T03:47:50;10.63;;;5.80;;
11960;SDS011;6040;49.358;11.140;2023-02-08T03:50:22;9.93;;;5.73;;
11960;SDS011;6040;49.358;11.140;2023-02-08T03:52:50;11.30;;;6.10;;
11960;SDS011;6040;49.358;11.140;2023-02-08T03:55:19;10.23;;;6.20;;
11960;SDS011;6040;49.358;11.140;2023-02-08T03:57:51;10.93;;;6.27;;
11960;SDS011;6040;49.358;11.140;2023-02-08T04:00:21;10.70;;;5.23;;
11960;SDS011;6040;49.358;11.140;2023-02-08T04:02:51;10.23;;;5.83;;
11960;SDS011;6040;49.358;11.140;2023-02-08T04:05:23;6.87;;;4.43;;
11960;SDS011;6040;49.358;11.140;2023-02-08T04:07:50;13.23;;;6.00;;
11960;SDS011;6040;49.358;11.140;2023-02-08T04:10:17;12.27;;;4.73;;
11960;SDS011;6040;49.358;11.140;2023-02-08T04:12:45;9.83;;;4.90;;
11960;SDS011;6040;49.358;11.140;2023-02-08T04:15:14;11.00;;;5.37;;
11960;SDS011;6040;49.358;11.140;2023-02-08T04:17:41;12.33;;;5.67;;
11960;SDS011;6040;49.358;11.140;2023-02-08T04:20:08;11.80;;;5.93;;
11960;SDS011;6040;49.358;11.140;2023-02-08T04:22:37;12.07;;;5.93;;
11960;SDS011;6040;49.358;11.140;2023-02-08T04:25:04;10.93;;;4.50;;
11960;SDS011;6040;49.358;11.140;2023-02-08T04:27:31;8.33;;;4.53;;
11960;SDS011;6040;49.358;11.140;2023-02-08T04:29:58;11.40;;;5.13;;
11960;SDS011;6040;49.358;11.140;2023-02-08T04:32:25;12.17;;;5.27;;
11960;SDS011;6040;49.358;11.140;2023-02-08T04:34:51;10.30;;;5.33;;
11960;SDS011;6040;49.358;11.140;2023-02-08T04:37:20;10.77;;;5.10;;
11960;SDS011;6040;49.358;11.140;2023-02-08T04:39:49;8.30;;;4.07;;
11960;SDS011;6040;49.358;11.140;2023-02-08T04:42:15;13.43;;;5.83;;
11960;SDS011;6040;49.358;11.140;2023-02-08T04:44:43;13.23;;;6.20;;
11960;SDS011;6040;49.358;11.140;2023-02-08T04:47:10;12.00;;;5.53;;
11960;SDS011;6040;49.358;11.140;2023-02-08T04:49:36;8.47;;;4.80;;
11960;SDS011;6040;49.358;11.140;2023-02-08T04:52:03;13.23;;;6.43;;
11960;SDS011;6040;49.358;11.140;2023-02-08T04:54:30;12.63;;;5.40;;
11960;SDS011;6040;49.358;11.140;2023-02-08T04:56:59;11.67;;;5.73;;
11960;SDS011;6040;49.358;11.140;2023-02-08T04:59:25;8.47;;;4.67;;
11960;SDS011;6040;49.358;11.140;2023-02-08T05:01:52;12.97;;;5.90;;
11960;SDS011;6040;49.358;11.140;2023-02-08T05:04:19;13.20;;;5.47;;
11960;SDS011;6040;49.358;11.140;2023-02-08T05:06:46;13.90;;;6.67;;
11960;SDS011;6040;49.358;11.140;2023-02-08T05:09:13;10.27;;;5.63;;
11960;SDS011;6040;49.358;11.140;2023-02-08T05:11:40;10.30;;;5.33;;
11960;SDS011;6040;49.358;11.140;2023-02-08T05:14:08;12.17;;;5.77;;
11960;SDS011;6040;49.358;11.140;2023-02-08T05:16:35;14.03;;;5.87;;
11960;SDS011;6040;49.358;11.140;2023-02-08T05:19:02;8.97;;;5.47;;
11960;SDS011;6040;49.358;11.140;2023-02-08T05:21:29;11.90;;;5.50;;
11960;SDS011;6040;49.358;11.140;2023-02-08T05:23:56;10.83;;;5.20;;
11960;SDS011;6040;49.358;11.140;2023-02-08T05:26:23;8.57;;;4.63;;
11960;SDS011;6040;49.358;11.140;2023-02-08T05:28:49;11.37;;;5.07;;
11960;SDS011;6040;49.358;11.140;2023-02-08T05:31:18;8.43;;;4.73;;
11960;SDS011;6040;49.358;11.140;2023-02-08T05:33:47;13.77;;;5.50;;
11960;SDS011;6040;49.358;11.140;2023-02-08T05:36:14;10.90;;;5.43;;
11960;SDS011;6040;49.358;11.140;2023-02-08T05:38:41;12.23;;;6.23;;
11960;SDS011;6040;49.358;11.140;2023-02-08T05:41:08;9.73;;;5.37;;
11960;SDS011;6040;49.358;11.140;2023-02-08T05:43:35;12.83;;;6.90;;
11960;SDS011;6040;49.358;11.140;2023-02-08T05:46:02;9.97;;;4.87;;
11960;SDS011;6040;49.358;11.140;2023-02-08T05:48:30;9.97;;;5.23;;
11960;SDS011;6040;49.358;11.140;2023-02-08T05:50:57;8.90;;;5.27;;
11960;SDS011;6040;49.358;11.140;2023-02-08T05:53:24;8.77;;;5.13;;
11960;SDS011;6040;49.358;11.140;2023-02-08T05:55:51;10.70;;;5.63;;
11960;SDS011;6040;49.358;11.140;2023-02-08T05:58:18;10.83;;;5.50;;
11960;SDS011;6040;49.358;11.140;2023-02-08T06:00:45;8.93;;;5.07;;
11960;SDS011;6040;49.358;11.140;2023-02-08T06:03:12;11.40;;;5.53;;
11960;SDS011;6040;49.358;11.140;2023-02-08T06:05:40;8.10;;;4.80;;
11960;SDS011;6040;49.358;11.140;2023-02-08T06:08:08;8.53;;;5.70;;
11960;SDS011;6040;49.358;11.140;2023-02-08T06:10:35;13.33;;;6.40;;
11960;SDS011;6040;49.358;11.140;2023-02-08T06:13:02;11.03;;;5.67;;
11960;SDS011;6040;49.358;11.140;2023-02-08T06:15:30;8.60;;;4.47;;
11960;SDS011;6040;49.358;11.140;2023-02-08T06:17:57;12.10;;;5.57;;
11960;SDS011;6040;49.358;11.140;2023-02-08T06:20:24;13.93;;;5.57;;
11960;SDS011;6040;49.358;11.140;2023-02-08T06:22:53;10.73;;;5.97;;
11960;SDS011;6040;49.358;11.140;2023-02-08T06:25:20;8.03;;;4.77;;
11960;SDS011;6040;49.358;11.140;2023-02-08T06:27:47;8.80;;;5.00;;
11960;SDS011;6040;49.358;11.140;2023-02-08T06:30:14;13.27;;;6.30;;
11960;SDS011;6040;49.358;11.140;2023-02-08T06:32:41;12.97;;;6.13;;
11960;SDS011;6040;49.358;11.140;2023-02-08T06:35:08;12.90;;;5.67;;
11960;SDS011;6040;49.358;11.140;2023-02-08T06:37:35;11.97;;;5.07;;
11960;SDS011;6040;49.358;11.140;2023-02-08T06:40:03;9.43;;;4.93;;
11960;SDS011;6040;49.358;11.140;2023-02-08T06:42:31;15.77;;;6.50;;
11960;SDS011;6040;49.358;11.140;2023-02-08T06:44:58;8.60;;;4.73;;
11960;SDS011;6040;49.358;11.140;2023-02-08T06:47:25;12.87;;;5.93;;
11960;SDS011;6040;49.358;11.140;2023-02-08T06:49:52;10.70;;;5.43;;
11960;SDS011;6040;49.358;11.140;2023-02-08T06:52:20;10.37;;;5.57;;
11960;SDS011;6040;49.358;11.140;2023-02-08T06:54:47;9.30;;;5.13;;
11960;SDS011;6040;49.358;11.140;2023-02-08T06:57:15;12.10;;;6.37;;
11960;SDS011;6040;49.358;11.140;2023-02-08T06:59:42;13.67;;;5.97;;
11960;SDS011;6040;49.358;11.140;2023-02-08T07:02:10;14.17;;;7.13;;
11960;SDS011;6040;49.358;11.140;2023-02-08T07:04:38;11.00;;;6.27;;
11960;SDS011;6040;49.358;11.140;2023-02-08T07:07:05;22.83;;;7.40;;
11960;SDS011;6040;49.358;11.140;2023-02-08T07:09:32;16.87;;;6.17;;
11960;SDS011;6040;49.358;11.140;2023-02-08T07:12:00;14.43;;;6.77;;
11960;SDS011;6040;49.358;11.140;2023-02-08T07:14:30;12.93;;;5.83;;
11960;SDS011;6040;49.358;11.140;2023-02-08T07:16:57;10.57;;;5.37;;
11960;SDS011;6040;49.358;11.140;2023-02-08T07:19:25;14.03;;;7.63;;
11960;SDS011;6040;49.358;11.140;2023-02-08T07:21:52;16.13;;;8.00;;
11960;SDS011;6040;49.358;11.140;2023-02-08T07:24:18;26.73;;;10.30;;
11960;SDS011;6040;49.358;11.140;2023-02-08T07:26:45;21.77;;;10.40;;
11960;SDS011;6040;49.358;11.140;2023-02-08T07:29:12;23.93;;;11.73;;
11960;SDS011;6040;49.358;11.140;2023-02-08T07:31:40;21.60;;;10.87;;
11960;SDS011;6040;49.358;11.140;2023-02-08T07:34:07;19.03;;;10.20;;
11960;SDS011;6040;49.358;11.140;2023-02-08T07:36:34;22.83;;;10.57;;
11960;SDS011;6040;49.358;11.140;2023-02-08T07:39:01;19.70;;;10.40;;
11960;SDS011;6040;49.358;11.140;2023-02-08T07:41:28;20.27;;;11.37;;
11960;SDS011;6040;49.358;11.140;2023-02-08T07:43:54;27.07;;;11.43;;
11960;SDS011;6040;49.358;11.140;2023-02-08T07:46:21;26.53;;;11.90;;
11960;SDS011;6040;49.358;11.140;2023-02-08T07:48:49;21.47;;;10.90;;
11960;SDS011;6040;49.358;11.140;2023-02-08T07:51:17;20.33;;;11.40;;
11960;SDS011;6040;49.358;11.140;2023-02-08T07:53:44;18.17;;;10.83;;
11960;SDS011;6040;49.358;11.140;2023-02-08T07:56:11;23.90;;;11.90;;
11960;SDS011;6040;49.358;11.140;2023-02-08T07:58:38;18.80;;;11.43;;
11960;SDS011;6040;49.358;11.140;2023-02-08T08:01:05;18.00;;;11.07;;
11960;SDS011;6040;49.358;11.140;2023-02-08T08:03:32;21.00;;;11.80;;
11960;SDS011;6040;49.358;11.140;2023-02-08T08:06:00;21.87;;;11.87;;
11960;SDS011;6040;49.358;11.140;2023-02-08T08:08:27;21.83;;;11.80;;
11960;SDS011;6040;49.358;11.140;2023-02-08T08:10:54;18.97;;;11.37;;
11960;SDS011;6040;49.358;11.140;2023-02-08T08:13:22;20.90;;;12.13;;
11960;SDS011;6040;49.358;11.140;2023-02-08T08:15:48;26.00;;;12.27;;
11960;SDS011;6040;49.358;11.140;2023-02-08T08:18:15;20.03;;;12.03;;
11960;SDS011;6040;49.358;11.140;2023-02-08T08:20:42;24.80;;;12.07;;
11960;SDS011;6040;49.358;11.140;2023-02-08T08:23:10;18.57;;;12.03;;
11960;SDS011;6040;49.358;11.140;2023-02-08T08:25:37;24.93;;;13.57;;
11960;SDS011;6040;49.358;11.140;2023-02-08T08:28:04;22.87;;;13.77;;
11960;SDS011;6040;49.358;11.140;2023-02-08T08:30:31;28.20;;;14.70;;
11960;SDS011;6040;49.358;11.140;2023-02-08T08:32:58;25.30;;;14.50;;
11960;SDS011;6040;49.358;11.140;2023-02-08T08:35:24;26.67;;;14.10;;
11960;SDS011;6040;49.358;11.140;2023-02-08T08:37:51;27.00;;;13.83;;
11960;SDS011;6040;49.358;11.140;2023-02-08T08:40:20;24.90;;;14.43;;
11960;SDS011;6040;49.358;11.140;2023-02-08T08:42:46;26.07;;;13.30;;
11960;SDS011;6040;49.358;11.140;2023-02-08T08:45:15;24.67;;;13.80;;
11960;SDS011;6040;49.358;11.140;2023-02-08T08:47:42;24.10;;;13.57;;
11960;SDS011;6040;49.358;11.140;2023-02-08T08:50:09;22.10;;;13.40;;
11960;SDS011;6040;49.358;11.140;2023-02-08T08:52:36;22.80;;;13.50;;
11960;SDS011;6040;49.358;11.140;2023-02-08T08:55:04;22.90;;;13.60;;
11960;SDS011;6040;49.358;11.140;2023-02-08T08:57:33;23.47;;;12.93;;
11960;SDS011;6040;49.358;11.140;2023-02-08T09:00:00;24.77;;;14.90;;
11960;SDS011;6040;49.358;11.140;2023-02-08T09:02:27;23.00;;;15.17;;
11960;SDS011;6040;49.358;11.140;2023-02-08T09:04:53;19.27;;;12.60;;
11960;SDS011;6040;49.358;11.140;2023-02-08T09:07:23;22.90;;;13.40;;
11960;SDS011;6040;49.358;11.140;2023-02-08T09:09:50;26.90;;;17.50;;
11960;SDS011;6040;49.358;11.140;2023-02-08T09:12:17;26.03;;;15.37;;
11960;SDS011;6040;49.358;11.140;2023-02-08T09:14:45;21.40;;;11.83;;
11960;SDS011;6040;49.358;11.140;2023-02-08T09:17:12;19.13;;;11.90;;
11960;SDS011;6040;49.358;11.140;2023-02-08T09:19:39;19.70;;;11.73;;
11960;SDS011;6040;49.358;11.140;2023-02-08T09:22:06;21.33;;;11.37;;
11960;SDS011;6040;49.358;11.140;2023-02-08T09:24:33;18.37;;;10.93;;
11960;SDS011;6040;49.358;11.140;2023-02-08T09:27:00;20.10;;;10.97;;
11960;SDS011;6040;49.358;11.140;2023-02-08T09:29:27;17.60;;;10.60;;
11960;SDS011;6040;49.358;11.140;2023-02-08T09:31:55;17.43;;;10.63;;
11960;SDS011;6040;49.358;11.140;2023-02-08T09:34:22;19.23;;;11.50;;
11960;SDS011;6040;49.358;11.140;2023-02-08T09:36:49;19.90;;;10.67;;
11960;SDS011;6040;49.358;11.140;2023-02-08T09:39:16;17.93;;;11.37;;
11960;SDS011;6040;49.358;11.140;2023-02-08T09:45:00;21.27;;;12.30;;
11960;SDS011;6040;49.358;11.140;2023-02-08T09:47:46;20.37;;;12.63;;
11960;SDS011;6040;49.358;11.140;2023-02-08T09:50:20;24.80;;;16.30;;
11960;SDS011;6040;49.358;11.140;2023-02-08T09:52:55;18.90;;;11.77;;
11960;SDS011;6040;49.358;11.140;2023-02-08T09:55:27;18.27;;;10.50;;
11960;SDS011;6040;49.358;11.140;2023-02-08T09:58:00;17.17;;;11.23;;
11960;SDS011;6040;49.358;11.140;2023-02-08T10:00:30;19.30;;;11.67;;
11960;SDS011;6040;49.358;11.140;2023-02-08T10:03:07;17.67;;;10.40;;
11960;SDS011;6040;49.358;11.140;2023-02-08T10:05:48;14.43;;;8.80;;
11960;SDS011;6040;49.358;11.140;2023-02-08T10:08:15;13.43;;;7.40;;
11960;SDS011;6040;49.358;11.140;2023-02-08T10:10:45;19.93;;;10.30;;
11960;SDS011;6040;49.358;11.140;2023-02-08T10:13:22;14.90;;;9.13;;
11960;SDS011;6040;49.358;11.140;2023-02-08T10:16:04;20.57;;;8.20;;
11960;SDS011;6040;49.358;11.140;2023-02-08T10:18:42;13.00;;;7.77;;
11960;SDS011;6040;49.358;11.140;2023-02-08T10:21:22;15.73;;;9.50;;
11960;SDS011;6040;49.358;11.140;2023-02-08T10:24:03;15.57;;;7.80;;
11960;SDS011;6040;49.358;11.140;2023-02-08T10:26:52;13.50;;;7.63;;
11960;SDS011;6040;49.358;11.140;2023-02-08T10:29:30;17.37;;;9.13;;
11960;SDS011;6040;49.358;11.140;2023-02-08T10:32:14;16.50;;;8.87;;
11960;SDS011;6040;49.358;11.140;2023-02-08T10:34:55;14.83;;;8.50;;
11960;SDS011;6040;49.358;11.140;2023-02-08T10:37:26;20.47;;;9.17;;
11960;SDS011;6040;49.358;11.140;2023-02-08T10:39:56;20.50;;;9.00;;
11960;SDS011;6040;49.358;11.140;2023-02-08T10:42:25;15.37;;;9.33;;
11960;SDS011;6040;49.358;11.140;2023-02-08T10:44:59;11.60;;;6.80;;
11960;SDS011;6040;49.358;11.140;2023-02-08T10:47:37;12.40;;;7.53;;
11960;SDS011;6040;49.358;11.140;2023-02-08T10:50:11;16.87;;;8.57;;
11960;SDS011;6040;49.358;11.140;2023-02-08T10:52:45;13.03;;;7.60;;
11960;SDS011;6040;49.358;11.140;2023-02-08T10:55:13;13.30;;;7.93;;
11960;SDS011;6040;49.358;11.140;2023-02-08T10:57:41;11.30;;;6.87;;
11960;SDS011;6040;49.358;11.140;2023-02-08T11:00:10;13.50;;;8.07;;
11960;SDS011;6040;49.358;11.140;2023-02-08T11:02:43;12.77;;;8.17;;
11960;SDS011;6040;49.358;11.140;2023-02-08T11:05:13;12.80;;;8.03;;
11960;SDS011;6040;49.358;11.140;2023-02-08T11:07:43;14.17;;;8.20;;
11960;SDS011;6040;49.358;11.140;2023-02-08T11:10:14;17.00;;;8.40;;
11960;SDS011;6040;49.358;11.140;2023-02-08T11:12:54;13.80;;;7.67;;
11960;SDS011;6040;49.358;11.140;2023-02-08T11:15:23;14.77;;;6.77;;
11960;SDS011;6040;49.358;11.140;2023-02-08T11:17:53;15.23;;;8.30;;
11960;SDS011;6040;49.358;11.140;2023-02-08T11:20:25;11.80;;;7.20;;
11960;SDS011;6040;49.358;11.140;2023-02-08T11:23:00;13.03;;;6.60;;
11960;SDS011;6040;49.358;11.140;2023-02-08T11:25:33;12.90;;;7.80;;
11960;SDS011;6040;49.358;11.140;2023-02-08T11:28:02;11.60;;;6.53;;
11960;SDS011;6040;49.358;11.140;2023-02-08T11:30:30;15.03;;;6.17;;
11960;SDS011;6040;49.358;11.140;2023-02-08T11:33:14;30.47;;;14.53;;
11960;SDS011;6040;49.358;11.140;2023-02-08T11:35:52;96.53;;;33.10;;
11960;SDS011;6040;49.358;11.140;2023-02-08T11:38:22;24.10;;;11.23;;
11960;SDS011;6040;49.358;11.140;2023-02-08T11:40:52;23.87;;;13.03;;
11960;SDS011;6040;49.358;11.140;2023-02-08T11:43:22;15.43;;;8.40;;
11960;SDS011;6040;49.358;11.140;2023-02-08T11:45:52;12.80;;;7.60;;
11960;SDS011;6040;49.358;11.140;2023-02-08T11:48:21;14.87;;;6.80;;
11960;SDS011;6040;49.358;11.140;2023-02-08T11:50:56;14.97;;;9.83;;
11960;SDS011;6040;49.358;11.140;2023-02-08T11:53:26;15.20;;;9.80;;
11960;SDS011;6040;49.358;11.140;2023-02-08T11:56:01;14.47;;;7.60;;
11960;SDS011;6040;49.358;11.140;2023-02-08T11:58:31;11.17;;;6.20;;
11960;SDS011;6040;49.358;11.140;2023-02-08T12:00:59;13.00;;;6.50;;
11960;SDS011;6040;49.358;11.140;2023-02-08T12:03:29;17.43;;;9.90;;
11960;SDS011;6040;49.358;11.140;2023-02-08T12:06:14;15.93;;;8.07;;
11960;SDS011;6040;49.358;11.140;2023-02-08T12:08:56;12.23;;;7.33;;
11960;SDS011;6040;49.358;11.140;2023-02-08T12:11:32;10.70;;;6.27;;
11960;SDS011;6040;49.358;11.140;2023-02-08T12:17:06;13.40;;;6.67;;
11960;SDS011;6040;49.358;11.140;2023-02-08T12:22:33;8.00;;;5.03;;
11960;SDS011;6040;49.358;11.140;2023-02-08T12:25:12;12.37;;;7.37;;
11960;SDS011;6040;49.358;11.140;2023-02-08T12:27:48;28.73;;;13.97;;
11960;SDS011;6040;49.358;11.140;2023-02-08T12:30:24;21.23;;;11.90;;
11960;SDS011;6040;49.358;11.140;2023-02-08T12:36:04;12.23;;;7.60;;
11960;SDS011;6040;49.358;11.140;2023-02-08T12:38:49;10.33;;;6.70;;
11960;SDS011;6040;49.358;11.140;2023-02-08T12:41:51;10.47;;;7.37;;
11960;SDS011;6040;49.358;11.140;2023-02-08T12:44:33;13.53;;;7.43;;
11960;SDS011;6040;49.358;11.140;2023-02-08T12:47:08;9.10;;;6.37;;
11960;SDS011;6040;49.358;11.140;2023-02-08T12:49:51;10.27;;;6.63;;
11960;SDS011;6040;49.358;11.140;2023-02-08T12:52:30;13.57;;;7.90;;
11960;SDS011;6040;49.358;11.140;2023-02-08T12:55:04;11.30;;;6.00;;
11960;SDS011;6040;49.358;11.140;2023-02-08T12:57:38;12.00;;;5.20;;
11960;SDS011;6040;49.358;11.140;2023-02-08T13:00:15;13.13;;;7.83;;
11960;SDS011;6040;49.358;11.140;2023-02-08T13:02:47;14.93;;;8.17;;
11960;SDS011;6040;49.358;11.140;2023-02-08T13:05:22;14.03;;;6.97;;
11960;SDS011;6040;49.358;11.140;2023-02-08T13:07:53;14.17;;;8.77;;
11960;SDS011;6040;49.358;11.140;2023-02-08T13:10:30;13.00;;;7.27;;
11960;SDS011;6040;49.358;11.140;2023-02-08T13:13:03;11.97;;;6.40;;
11960;SDS011;6040;49.358;11.140;2023-02-08T13:15:37;14.97;;;7.40;;
11960;SDS011;6040;49.358;11.140;2023-02-08T13:18:10;12.97;;;7.20;;
11960;SDS011;6040;49.358;11.140;2023-02-08T13:20:43;13.57;;;7.83;;
11960;SDS011;6040;49.358;11.140;2023-02-08T13:23:15;15.13;;;8.77;;
11960;SDS011;6040;49.358;11.140;2023-02-08T13:25:48;12.60;;;8.30;;
11960;SDS011;6040;49.358;11.140;2023-02-08T13:28:19;12.07;;;7.37;;
11960;SDS011;6040;49.358;11.140;2023-02-08T13:30:52;13.97;;;6.17;;
11960;SDS011;6040;49.358;11.140;2023-02-08T13:33:27;15.60;;;8.10;;
11960;SDS011;6040;49.358;11.140;2023-02-08T13:35:59;10.77;;;7.27;;
11960;SDS011;6040;49.358;11.140;2023-02-08T13:38:28;13.60;;;6.70;;
11960;SDS011;6040;49.358;11.140;2023-02-08T13:41:13;12.20;;;7.03;;
11960;SDS011;6040;49.358;11.140;2023-02-08T13:43:44;10.90;;;6.67;;
11960;SDS011;6040;49.358;11.140;2023-02-08T13:46:15;11.93;;;6.90;;
11960;SDS011;6040;49.358;11.140;2023-02-08T13:48:44;10.97;;;7.10;;
11960;SDS011;6040;49.358;11.140;2023-02-08T13:54:23;9.57;;;5.80;;
11960;SDS011;6040;49.358;11.140;2023-02-08T13:56:51;10.50;;;6.10;;
11960;SDS011;6040;49.358;11.140;2023-02-08T13:59:29;9.67;;;5.70;;
11960;SDS011;6040;49.358;11.140;2023-02-08T14:04:48;9.73;;;5.27;;
11960;SDS011;6040;49.358;11.140;2023-02-08T14:07:24;9.57;;;5.23;;
11960;SDS011;6040;49.358;11.140;2023-02-08T14:10:03;9.37;;;5.57;;
11960;SDS011;6040;49.358;11.140;2023-02-08T14:12:36;14.67;;;6.17;;
11960;SDS011;6040;49.358;11.140;2023-02-08T14:15:24;12.43;;;6.40;;
11960;SDS011;6040;49.358;11.140;2023-02-08T14:17:55;8.80;;;4.43;;
11960;SDS011;6040;49.358;11.140;2023-02-08T14:20:25;19.13;;;6.70;;
11960;SDS011;6040;49.358;11.140;2023-02-08T14:22:57;9.80;;;5.30;;
11960;SDS011;6040;49.358;11.140;2023-02-08T14:25:28;12.67;;;6.77;;
11960;SDS011;6040;49.358;11.140;2023-02-08T14:28:05;12.43;;;6.93;;
11960;SDS011;6040;49.358;11.140;2023-02-08T14:30:46;13.70;;;7.43;;
11960;SDS011;6040;49.358;11.140;2023-02-08T14:33:17;12.37;;;7.40;;
11960;SDS011;6040;49.358;11.140;2023-02-08T14:35:51;12.40;;;6.83;;
11960;SDS011;6040;49.358;11.140;2023-02-08T14:41:42;13.50;;;6.77;;
11960;SDS011;6040;49.358;11.140;2023-02-08T14:50:23;12.17;;;7.30;;
11960;SDS011;6040;49.358;11.140;2023-02-08T14:52:55;11.93;;;6.47;;
11960;SDS011;6040;49.358;11.140;2023-02-08T14:55:26;13.17;;;7.40;;
11960;SDS011;6040;49.358;11.140;2023-02-08T14:57:58;10.33;;;6.33;;
11960;SDS011;6040;49.358;11.140;2023-02-08T15:00:27;12.40;;;6.87;;
11960;SDS011;6040;49.358;11.140;2023-02-08T15:02:58;13.93;;;7.33;;
11960;SDS011;6040;49.358;11.140;2023-02-08T15:05:28;15.27;;;7.30;;
11960;SDS011;6040;49.358;11.140;2023-02-08T15:07:58;14.60;;;7.33;;
11960;SDS011;6040;49.358;11.140;2023-02-08T15:10:27;12.87;;;6.60;;
11960;SDS011;6040;49.358;11.140;2023-02-08T15:12:56;10.60;;;6.67;;
11960;SDS011;6040;49.358;11.140;2023-02-08T15:15:28;12.00;;;6.80;;
11960;SDS011;6040;49.358;11.140;2023-02-08T15:17:58;13.37;;;7.07;;
11960;SDS011;6040;49.358;11.140;2023-02-08T15:20:29;10.23;;;6.13;;
11960;SDS011;6040;49.358;11.140;2023-02-08T15:22:58;12.93;;;6.87;;